ROAM Help

We Recommend using All Info when you want to see all party and legal information.

We Recommend using Party Info when you want to see all party information, but not additional legal information.

We Recommend using Legal Info when you want to see all legal information, but not additional party information.

We Recommend using Document Info only when searching by Instrument Number, Book or Page. Running searches by these fields and using this filter will allow you to see 1 document per row.

Mode: PC|Mobile|Tablet
Results: All Info | Party Info | Legal Info | Document Info
1 2 3 4 5 6 7 8 9 10 of 99453 Go »

Sussex Public Records Results 1 - 30 of 2983561 for . (0.00 seconds)
**Notice: By searching the Sussex County Public Access ROAM site, you acknowledge that you have read and agree to the Terms and Conditions which can be found HERE
NOTICE REGARDING SEARCHES:
SOME OLDER CANCELLATIONS OF MORTGAGE ARE NOT RECORDED AS ELECTRONIC IMAGES, AND ARE
THUS NOT FOUND ON THIS WEBSITE, BUT ARE LOCATED IN BOOKS IN THE CLERK’S RECORDS ROOM, LOCATED AT
83 SPRING ST., SUITE 204 IN NEWTON, NJ.
ACCORDINGLY, THOROUGH TITLE SEARCHES SHOULD BE CONDUCTED THERE.

Index Type

Name

Party Role


Date Recorded

Instrument #Date RecordedNameParty RoleDoc TypeOther NameBook/Map YearPage/Map #First ReferenceLegal DescriptionBriefcaseView ImageView Full Screen
2022061001019178006/10/2022 03:11:26NOTICE OF SETTLEMENT SINGLE772664Lot:2 Blk:11501 Twp:Stanhope Borough
2004010298000000701/02/2004 12:00:00DISCHARGE OF MORTGAGE5942276
1985091202000285009/12/1985 12:00:00CHIROPRACTIC HEALTH CENTERCompany nameTRADE NAME993
1985091302000287009/13/1985 12:00:00CAM PRODUCTIONSCompany nameTRADE NAME995
1985091602000294009/16/1985 12:00:00BUNS GALORECompany nameTRADE NAME9102
1985091801000119909/18/1985 12:00:00CEDAR BROOKGrantorMAPSSPARTA TOWNSHIP812Twp:No Location
1985071902000194007/19/1985 12:00:00CERTIFIED CARPET CLEANERSCompany nameTRADE NAME92
1985092502000311009/25/1985 12:00:00CARLTON VILLAGECompany nameTRADE NAME9119
1985092602000314009/26/1985 12:00:00CHIM-CHIM-CHEREECompany nameTRADE NAME9122
1985073102000214007/31/1985 12:00:00BLUE HERON ENTERPRISESCompany nameTRADE NAME922
1985081302000235008/13/1985 12:00:00CENTURY 21 BILL SEMMENSCompany nameTRADE NAME943
1985101702000351010/17/1985 12:00:00BOYCOCompany nameTRADE NAME9160
1985101702000352010/17/1985 12:00:00C K BUSINESS RESOURCESCompany nameTRADE NAME9161
1985102102000355010/21/1985 12:00:00C & J REALTY COMPANYCompany nameTRADE NAME9164
1985123002000458012/30/1985 12:00:00BODYWORKSCompany nameTRADE NAME9273
1985123002000458106/18/1987 12:00:00BODYWORKSCompany nameDISSOLUTION TRADE NAME9273
1986010202000461001/02/1986 12:00:00BOSTON HARBOUR EXPRESSCompany nameTRADE NAME9276
1986012702000502001/27/1986 12:00:00CARRIAGE HILL ASSOCIATESCompany nameTRADE NAME9316
1986020302000521002/03/1986 12:00:00CANINE KEEPSAKESCompany nameTRADE NAME9335
1986022702000574002/27/1986 12:00:00CENTRAL DIAMOND EXCHANGECompany nameTRADE NAME1036
1986030602000597003/06/1986 12:00:00BRANCHVILLE FAMILY CHIROPRACTICCompany nameTRADE NAME1058
1986031102000611003/11/1986 12:00:00C F G CONTRACTORSCompany nameTRADE NAME1072
1986031102000611111/02/1989 12:00:00C F G CONTRACTORSCompany nameDISSOLUTION TRADE NAME1072
1986031202000619003/12/1986 12:00:00BRANCHVILLE EYE ASSOCIATESCompany nameTRADE NAME1080
1985111502000398011/15/1985 12:00:00CARPENTRY PLUSCompany nameTRADE NAME9214
1985111902000402011/19/1985 12:00:00BLUESPRUCE LANDSCAPINGCompany nameTRADE NAME9218
1985112202000413011/22/1985 12:00:00CD CONNECTIONSCompany nameTRADE NAME9229
1985121302000438012/13/1985 12:00:00CHARLES LANZA SIDING ROOFING CONTRACTORCompany nameTRADE NAME9254
1985121602000443012/16/1985 12:00:00BUSINESS QUARTERSCompany nameTRADE NAME9258
1985121702000444012/17/1985 12:00:00CHRYSALISCompany nameTRADE NAME9259

Clicking on the Columns below will only sort the current page.

1 2 3 4 5 6 7 8 9 10 of 99453 Go »


Copyright © Granicus, INC.
Results per page :